sensor_id;sensor_type;location;lat;lon;timestamp;P1;durP1;ratioP1;P2;durP2;ratioP2
26838;SDS011;40088;51.214;6.786;2022-11-15T00:03:04;5.20;;;4.35;;
26838;SDS011;40088;51.214;6.786;2022-11-15T00:13:08;4.38;;;3.97;;
26838;SDS011;40088;51.214;6.786;2022-11-15T00:23:09;5.45;;;4.38;;
26838;SDS011;40088;51.214;6.786;2022-11-15T00:33:10;4.23;;;3.83;;
26838;SDS011;40088;51.214;6.786;2022-11-15T00:43:10;6.90;;;4.13;;
26838;SDS011;40088;51.214;6.786;2022-11-15T00:53:10;5.43;;;3.90;;
26838;SDS011;40088;51.214;6.786;2022-11-15T01:03:10;5.10;;;4.05;;
26838;SDS011;40088;51.214;6.786;2022-11-15T01:13:11;4.32;;;3.83;;
26838;SDS011;40088;51.214;6.786;2022-11-15T01:23:11;4.25;;;3.45;;
26838;SDS011;40088;51.214;6.786;2022-11-15T01:33:11;4.00;;;3.60;;
26838;SDS011;40088;51.214;6.786;2022-11-15T01:53:23;4.28;;;3.50;;
26838;SDS011;40088;51.214;6.786;2022-11-15T02:03:26;5.05;;;3.47;;
26838;SDS011;40088;51.214;6.786;2022-11-15T02:13:36;3.80;;;3.40;;
26838;SDS011;40088;51.214;6.786;2022-11-15T02:44:37;3.97;;;3.58;;
26838;SDS011;40088;51.214;6.786;2022-11-15T02:54:52;3.38;;;3.03;;
26838;SDS011;40088;51.214;6.786;2022-11-15T03:04:55;4.00;;;2.88;;
26838;SDS011;40088;51.214;6.786;2022-11-15T03:26:05;3.50;;;3.10;;
26838;SDS011;40088;51.214;6.786;2022-11-15T03:36:09;3.83;;;3.33;;
26838;SDS011;40088;51.214;6.786;2022-11-15T03:46:12;3.80;;;3.38;;
26838;SDS011;40088;51.214;6.786;2022-11-15T03:56:14;3.70;;;3.30;;
26838;SDS011;40088;51.214;6.786;2022-11-15T04:06:15;4.82;;;3.53;;
26838;SDS011;40088;51.214;6.786;2022-11-15T04:16:15;3.10;;;2.85;;
26838;SDS011;40088;51.214;6.786;2022-11-15T04:26:16;4.30;;;3.33;;
26838;SDS011;40088;51.214;6.786;2022-11-15T04:46:38;4.30;;;3.35;;
26838;SDS011;40088;51.214;6.786;2022-11-15T04:56:38;4.22;;;3.15;;
26838;SDS011;40088;51.214;6.786;2022-11-15T05:06:39;3.53;;;3.22;;
26838;SDS011;40088;51.214;6.786;2022-11-15T05:16:39;4.35;;;2.83;;
26838;SDS011;40088;51.214;6.786;2022-11-15T05:26:40;3.55;;;3.10;;
26838;SDS011;40088;51.214;6.786;2022-11-15T05:36:41;3.75;;;3.13;;
26838;SDS011;40088;51.214;6.786;2022-11-15T05:46:42;3.60;;;3.30;;
26838;SDS011;40088;51.214;6.786;2022-11-15T05:56:44;3.67;;;3.28;;
26838;SDS011;40088;51.214;6.786;2022-11-15T06:06:44;3.50;;;3.20;;
26838;SDS011;40088;51.214;6.786;2022-11-15T06:16:44;3.20;;;2.90;;
26838;SDS011;40088;51.214;6.786;2022-11-15T06:26:45;3.92;;;3.00;;
26838;SDS011;40088;51.214;6.786;2022-11-15T06:36:45;3.88;;;3.00;;
26838;SDS011;40088;51.214;6.786;2022-11-15T06:46:45;3.15;;;2.63;;
26838;SDS011;40088;51.214;6.786;2022-11-15T06:56:45;4.05;;;2.83;;
26838;SDS011;40088;51.214;6.786;2022-11-15T07:06:46;2.90;;;2.60;;
26838;SDS011;40088;51.214;6.786;2022-11-15T07:16:47;3.72;;;3.00;;
26838;SDS011;40088;51.214;6.786;2022-11-15T07:26:48;3.45;;;3.05;;
26838;SDS011;40088;51.214;6.786;2022-11-15T07:36:48;3.03;;;2.70;;
26838;SDS011;40088;51.214;6.786;2022-11-15T07:46:48;3.30;;;2.53;;
26838;SDS011;40088;51.214;6.786;2022-11-15T07:56:49;3.15;;;2.67;;
26838;SDS011;40088;51.214;6.786;2022-11-15T08:06:49;4.32;;;2.75;;
26838;SDS011;40088;51.214;6.786;2022-11-15T08:16:49;3.05;;;2.58;;
26838;SDS011;40088;51.214;6.786;2022-11-15T08:26:49;2.72;;;2.45;;
26838;SDS011;40088;51.214;6.786;2022-11-15T08:36:50;2.13;;;2.00;;
26838;SDS011;40088;51.214;6.786;2022-11-15T08:46:50;3.47;;;2.30;;
26838;SDS011;40088;51.214;6.786;2022-11-15T08:56:50;4.00;;;2.30;;
26838;SDS011;40088;51.214;6.786;2022-11-15T09:06:50;2.70;;;2.40;;
26838;SDS011;40088;51.214;6.786;2022-11-15T09:16:51;2.83;;;2.40;;
26838;SDS011;40088;51.214;6.786;2022-11-15T09:26:51;2.38;;;2.17;;
26838;SDS011;40088;51.214;6.786;2022-11-15T09:36:51;2.90;;;2.08;;
26838;SDS011;40088;51.214;6.786;2022-11-15T09:57:13;2.42;;;2.13;;
26838;SDS011;40088;51.214;6.786;2022-11-15T10:07:42;2.25;;;1.90;;
26838;SDS011;40088;51.214;6.786;2022-11-15T10:28:18;1.70;;;1.60;;
26838;SDS011;40088;51.214;6.786;2022-11-15T10:38:22;2.10;;;1.63;;
26838;SDS011;40088;51.214;6.786;2022-11-15T10:48:23;2.00;;;1.80;;
26838;SDS011;40088;51.214;6.786;2022-11-15T10:58:32;1.95;;;1.60;;
26838;SDS011;40088;51.214;6.786;2022-11-15T11:08:34;1.60;;;1.50;;
26838;SDS011;40088;51.214;6.786;2022-11-15T11:18:38;1.70;;;1.50;;
26838;SDS011;40088;51.214;6.786;2022-11-15T11:28:57;3.08;;;1.48;;
26838;SDS011;40088;51.214;6.786;2022-11-15T11:39:34;1.52;;;1.40;;
26838;SDS011;40088;51.214;6.786;2022-11-15T11:50:15;1.83;;;1.30;;
26838;SDS011;40088;51.214;6.786;2022-11-15T12:00:22;1.63;;;1.40;;
26838;SDS011;40088;51.214;6.786;2022-11-15T12:10:24;1.70;;;1.40;;
26838;SDS011;40088;51.214;6.786;2022-11-15T12:20:31;1.92;;;1.40;;
26838;SDS011;40088;51.214;6.786;2022-11-15T12:41:35;1.90;;;1.40;;
26838;SDS011;40088;51.214;6.786;2022-11-15T12:51:19;1.58;;;1.08;;
26838;SDS011;40088;51.214;6.786;2022-11-15T13:11:42;1.27;;;1.17;;
26838;SDS011;40088;51.214;6.786;2022-11-15T13:21:47;2.08;;;1.20;;
26838;SDS011;40088;51.214;6.786;2022-11-15T13:42:16;2.00;;;1.00;;
26838;SDS011;40088;51.214;6.786;2022-11-15T13:52:19;1.23;;;1.08;;
26838;SDS011;40088;51.214;6.786;2022-11-15T14:02:21;1.67;;;1.13;;
26838;SDS011;40088;51.214;6.786;2022-11-15T14:12:35;2.55;;;1.20;;
26838;SDS011;40088;51.214;6.786;2022-11-15T14:22:35;1.48;;;0.93;;
26838;SDS011;40088;51.214;6.786;2022-11-15T14:32:43;1.42;;;0.93;;
26838;SDS011;40088;51.214;6.786;2022-11-15T14:42:46;2.00;;;1.35;;
26838;SDS011;40088;51.214;6.786;2022-11-15T14:52:48;1.70;;;1.00;;
26838;SDS011;40088;51.214;6.786;2022-11-15T15:02:48;2.42;;;1.10;;
26838;SDS011;40088;51.214;6.786;2022-11-15T15:12:52;2.13;;;1.20;;
26838;SDS011;40088;51.214;6.786;2022-11-15T15:22:52;1.30;;;1.00;;
26838;SDS011;40088;51.214;6.786;2022-11-15T15:32:52;1.90;;;1.17;;
26838;SDS011;40088;51.214;6.786;2022-11-15T15:42:53;1.10;;;0.95;;
26838;SDS011;40088;51.214;6.786;2022-11-15T15:52:55;2.05;;;1.15;;
26838;SDS011;40088;51.214;6.786;2022-11-15T16:02:57;1.47;;;1.13;;
26838;SDS011;40088;51.214;6.786;2022-11-15T16:12:58;4.43;;;1.30;;
26838;SDS011;40088;51.214;6.786;2022-11-15T16:22:58;1.52;;;1.30;;
26838;SDS011;40088;51.214;6.786;2022-11-15T16:32:59;2.00;;;1.20;;
26838;SDS011;40088;51.214;6.786;2022-11-15T16:43:00;2.45;;;1.38;;
26838;SDS011;40088;51.214;6.786;2022-11-15T16:53:01;2.13;;;1.45;;
26838;SDS011;40088;51.214;6.786;2022-11-15T17:03:02;3.05;;;1.45;;
26838;SDS011;40088;51.214;6.786;2022-11-15T17:13:02;1.27;;;1.03;;
26838;SDS011;40088;51.214;6.786;2022-11-15T17:23:04;1.83;;;1.33;;
26838;SDS011;40088;51.214;6.786;2022-11-15T17:33:11;1.92;;;1.48;;
26838;SDS011;40088;51.214;6.786;2022-11-15T17:43:11;1.63;;;1.30;;
26838;SDS011;40088;51.214;6.786;2022-11-15T17:53:11;1.45;;;1.30;;
26838;SDS011;40088;51.214;6.786;2022-11-15T18:03:12;1.75;;;1.40;;
26838;SDS011;40088;51.214;6.786;2022-11-15T18:13:13;1.77;;;1.40;;
26838;SDS011;40088;51.214;6.786;2022-11-15T18:23:13;3.47;;;1.48;;
26838;SDS011;40088;51.214;6.786;2022-11-15T18:33:15;1.80;;;1.30;;
26838;SDS011;40088;51.214;6.786;2022-11-15T18:43:15;1.40;;;1.20;;
26838;SDS011;40088;51.214;6.786;2022-11-15T18:53:15;1.38;;;1.27;;
26838;SDS011;40088;51.214;6.786;2022-11-15T19:03:16;1.80;;;1.30;;
26838;SDS011;40088;51.214;6.786;2022-11-15T19:13:16;1.40;;;1.30;;
26838;SDS011;40088;51.214;6.786;2022-11-15T19:23:16;2.92;;;1.52;;
26838;SDS011;40088;51.214;6.786;2022-11-15T19:33:17;1.58;;;1.48;;
26838;SDS011;40088;51.214;6.786;2022-11-15T19:43:17;2.43;;;1.70;;
26838;SDS011;40088;51.214;6.786;2022-11-15T19:53:18;2.38;;;1.80;;
26838;SDS011;40088;51.214;6.786;2022-11-15T20:03:18;2.10;;;1.65;;
26838;SDS011;40088;51.214;6.786;2022-11-15T20:13:19;2.25;;;1.80;;
26838;SDS011;40088;51.214;6.786;2022-11-15T20:23:19;1.85;;;1.50;;
26838;SDS011;40088;51.214;6.786;2022-11-15T20:33:20;2.08;;;1.88;;
26838;SDS011;40088;51.214;6.786;2022-11-15T20:43:21;2.17;;;1.70;;
26838;SDS011;40088;51.214;6.786;2022-11-15T20:53:21;3.65;;;2.25;;
26838;SDS011;40088;51.214;6.786;2022-11-15T21:03:22;1.88;;;1.70;;
26838;SDS011;40088;51.214;6.786;2022-11-15T21:13:22;2.72;;;1.88;;
26838;SDS011;40088;51.214;6.786;2022-11-15T21:23:22;2.88;;;1.90;;
26838;SDS011;40088;51.214;6.786;2022-11-15T21:33:22;3.88;;;2.10;;
26838;SDS011;40088;51.214;6.786;2022-11-15T21:43:26;2.55;;;2.00;;
26838;SDS011;40088;51.214;6.786;2022-11-15T21:53:26;2.83;;;2.10;;
26838;SDS011;40088;51.214;6.786;2022-11-15T22:03:27;2.88;;;2.08;;
26838;SDS011;40088;51.214;6.786;2022-11-15T22:13:28;2.30;;;2.10;;
26838;SDS011;40088;51.214;6.786;2022-11-15T22:23:29;3.05;;;2.50;;
26838;SDS011;40088;51.214;6.786;2022-11-15T22:33:31;2.63;;;2.20;;
26838;SDS011;40088;51.214;6.786;2022-11-15T22:43:33;3.72;;;2.78;;
26838;SDS011;40088;51.214;6.786;2022-11-15T22:53:33;2.70;;;2.17;;
26838;SDS011;40088;51.214;6.786;2022-11-15T23:03:34;6.03;;;2.30;;
26838;SDS011;40088;51.214;6.786;2022-11-15T23:13:34;8.50;;;4.22;;
26838;SDS011;40088;51.214;6.786;2022-11-15T23:23:34;32.97;;;28.45;;
26838;SDS011;40088;51.214;6.786;2022-11-15T23:33:35;35.53;;;31.67;;
26838;SDS011;40088;51.214;6.786;2022-11-15T23:43:53;46.65;;;40.55;;
26838;SDS011;40088;51.214;6.786;2022-11-15T23:53:54;70.20;;;60.28;;
